sensor_id;sensor_type;location;lat;lon;timestamp;temperature;humidity
4749;DHT22;2388;53.582;9.962;2022-10-18T00:00:35;15.40;99.90
4749;DHT22;2388;53.582;9.962;2022-10-18T00:03:01;15.30;99.90
4749;DHT22;2388;53.582;9.962;2022-10-18T00:05:26;15.30;99.90
4749;DHT22;2388;53.582;9.962;2022-10-18T00:07:52;15.30;99.90
4749;DHT22;2388;53.582;9.962;2022-10-18T00:10:17;15.30;99.90
4749;DHT22;2388;53.582;9.962;2022-10-18T00:12:43;15.30;99.90
4749;DHT22;2388;53.582;9.962;2022-10-18T00:15:09;15.30;99.90
4749;DHT22;2388;53.582;9.962;2022-10-18T00:17:36;15.30;99.90
4749;DHT22;2388;53.582;9.962;2022-10-18T00:20:03;15.20;99.90
4749;DHT22;2388;53.582;9.962;2022-10-18T00:22:30;15.20;99.90
4749;DHT22;2388;53.582;9.962;2022-10-18T00:24:56;15.20;99.90
4749;DHT22;2388;53.582;9.962;2022-10-18T00:27:21;15.20;99.90
4749;DHT22;2388;53.582;9.962;2022-10-18T00:29:47;15.20;99.90
4749;DHT22;2388;53.582;9.962;2022-10-18T00:32:12;15.20;99.90
4749;DHT22;2388;53.582;9.962;2022-10-18T00:34:38;15.10;99.90
4749;DHT22;2388;53.582;9.962;2022-10-18T00:37:05;15.10;99.90
4749;DHT22;2388;53.582;9.962;2022-10-18T00:39:31;15.00;99.90
4749;DHT22;2388;53.582;9.962;2022-10-18T00:41:56;15.00;99.90
4749;DHT22;2388;53.582;9.962;2022-10-18T00:46:52;15.10;99.90
4749;DHT22;2388;53.582;9.962;2022-10-18T00:49:40;15.10;99.90
4749;DHT22;2388;53.582;9.962;2022-10-18T00:52:23;15.10;99.90
4749;DHT22;2388;53.582;9.962;2022-10-18T00:54:51;15.00;99.90
4749;DHT22;2388;53.582;9.962;2022-10-18T00:57:17;15.10;99.90
4749;DHT22;2388;53.582;9.962;2022-10-18T00:59:43;15.00;99.90
4749;DHT22;2388;53.582;9.962;2022-10-18T01:02:09;15.10;99.90
4749;DHT22;2388;53.582;9.962;2022-10-18T01:04:35;15.00;99.90
4749;DHT22;2388;53.582;9.962;2022-10-18T01:20:54;14.90;99.90
4749;DHT22;2388;53.582;9.962;2022-10-18T01:28:33;14.90;99.90
4749;DHT22;2388;53.582;9.962;2022-10-18T01:31:13;14.90;99.90
4749;DHT22;2388;53.582;9.962;2022-10-18T01:33:44;14.80;99.90
4749;DHT22;2388;53.582;9.962;2022-10-18T01:36:21;14.90;99.90
4749;DHT22;2388;53.582;9.962;2022-10-18T01:38:50;14.90;99.90
4749;DHT22;2388;53.582;9.962;2022-10-18T01:41:19;14.90;99.90
4749;DHT22;2388;53.582;9.962;2022-10-18T01:43:47;14.90;99.90
4749;DHT22;2388;53.582;9.962;2022-10-18T01:46:18;14.90;99.90
4749;DHT22;2388;53.582;9.962;2022-10-18T01:48:45;14.90;99.90
4749;DHT22;2388;53.582;9.962;2022-10-18T01:51:11;14.80;99.90
4749;DHT22;2388;53.582;9.962;2022-10-18T01:53:37;14.80;99.90
4749;DHT22;2388;53.582;9.962;2022-10-18T01:59:01;14.90;99.90
4749;DHT22;2388;53.582;9.962;2022-10-18T02:01:40;14.80;99.90
4749;DHT22;2388;53.582;9.962;2022-10-18T02:04:30;14.90;99.90
4749;DHT22;2388;53.582;9.962;2022-10-18T02:07:05;14.80;99.90
4749;DHT22;2388;53.582;9.962;2022-10-18T02:09:41;14.80;99.90
4749;DHT22;2388;53.582;9.962;2022-10-18T02:12:10;14.80;99.90
4749;DHT22;2388;53.582;9.962;2022-10-18T02:14:38;14.80;99.90
4749;DHT22;2388;53.582;9.962;2022-10-18T02:17:07;14.80;99.90
4749;DHT22;2388;53.582;9.962;2022-10-18T02:19:37;14.80;99.90
4749;DHT22;2388;53.582;9.962;2022-10-18T02:22:05;14.80;99.90
4749;DHT22;2388;53.582;9.962;2022-10-18T02:24:37;14.80;99.90
4749;DHT22;2388;53.582;9.962;2022-10-18T02:27:03;14.80;99.90
4749;DHT22;2388;53.582;9.962;2022-10-18T02:29:29;14.70;99.90
4749;DHT22;2388;53.582;9.962;2022-10-18T02:32:17;14.70;99.90
4749;DHT22;2388;53.582;9.962;2022-10-18T02:34:51;14.80;99.90
4749;DHT22;2388;53.582;9.962;2022-10-18T02:37:21;14.80;99.90
4749;DHT22;2388;53.582;9.962;2022-10-18T02:39:49;14.80;99.90
4749;DHT22;2388;53.582;9.962;2022-10-18T02:42:15;14.70;99.90
4749;DHT22;2388;53.582;9.962;2022-10-18T02:44:41;14.80;99.90
4749;DHT22;2388;53.582;9.962;2022-10-18T02:47:09;14.80;99.90
4749;DHT22;2388;53.582;9.962;2022-10-18T02:49:34;14.80;99.90
4749;DHT22;2388;53.582;9.962;2022-10-18T02:52:00;14.90;99.90
4749;DHT22;2388;53.582;9.962;2022-10-18T02:54:25;14.90;99.90
4749;DHT22;2388;53.582;9.962;2022-10-18T02:56:51;14.90;99.90
4749;DHT22;2388;53.582;9.962;2022-10-18T02:59:17;14.80;99.90
4749;DHT22;2388;53.582;9.962;2022-10-18T03:01:42;14.80;99.90
4749;DHT22;2388;53.582;9.962;2022-10-18T03:04:08;14.80;99.90
4749;DHT22;2388;53.582;9.962;2022-10-18T03:06:34;14.80;99.90
4749;DHT22;2388;53.582;9.962;2022-10-18T03:09:04;14.80;99.90
4749;DHT22;2388;53.582;9.962;2022-10-18T03:11:30;14.70;99.90
4749;DHT22;2388;53.582;9.962;2022-10-18T03:13:55;14.70;99.90
4749;DHT22;2388;53.582;9.962;2022-10-18T03:16:21;14.70;99.90
4749;DHT22;2388;53.582;9.962;2022-10-18T03:18:46;14.70;99.90
4749;DHT22;2388;53.582;9.962;2022-10-18T03:21:12;14.70;99.90
4749;DHT22;2388;53.582;9.962;2022-10-18T03:23:37;14.70;99.90
4749;DHT22;2388;53.582;9.962;2022-10-18T03:26:04;14.70;99.90
4749;DHT22;2388;53.582;9.962;2022-10-18T03:28:29;14.70;99.90
4749;DHT22;2388;53.582;9.962;2022-10-18T03:31:03;14.70;99.90
4749;DHT22;2388;53.582;9.962;2022-10-18T03:33:29;14.70;99.90
4749;DHT22;2388;53.582;9.962;2022-10-18T03:35:54;14.60;99.90
4749;DHT22;2388;53.582;9.962;2022-10-18T03:38:20;14.60;99.90
4749;DHT22;2388;53.582;9.962;2022-10-18T03:40:45;14.60;99.90
4749;DHT22;2388;53.582;9.962;2022-10-18T03:43:11;14.60;99.90
4749;DHT22;2388;53.582;9.962;2022-10-18T03:45:36;14.60;99.90
4749;DHT22;2388;53.582;9.962;2022-10-18T03:48:02;14.60;99.90
4749;DHT22;2388;53.582;9.962;2022-10-18T03:50:27;14.60;99.90
4749;DHT22;2388;53.582;9.962;2022-10-18T03:52:53;14.60;99.90
4749;DHT22;2388;53.582;9.962;2022-10-18T03:55:20;14.60;99.90
4749;DHT22;2388;53.582;9.962;2022-10-18T03:57:45;14.60;99.90
4749;DHT22;2388;53.582;9.962;2022-10-18T04:00:11;14.50;99.90
4749;DHT22;2388;53.582;9.962;2022-10-18T04:02:37;14.60;99.90
4749;DHT22;2388;53.582;9.962;2022-10-18T04:05:03;14.50;99.90
4749;DHT22;2388;53.582;9.962;2022-10-18T04:07:28;14.50;99.90
4749;DHT22;2388;53.582;9.962;2022-10-18T04:09:54;14.50;99.90
4749;DHT22;2388;53.582;9.962;2022-10-18T04:12:19;14.40;99.90
4749;DHT22;2388;53.582;9.962;2022-10-18T04:14:45;14.50;99.90
4749;DHT22;2388;53.582;9.962;2022-10-18T04:17:10;14.40;99.90
4749;DHT22;2388;53.582;9.962;2022-10-18T04:19:36;14.40;99.90
4749;DHT22;2388;53.582;9.962;2022-10-18T04:22:01;14.40;99.90
4749;DHT22;2388;53.582;9.962;2022-10-18T04:24:27;14.40;99.90
4749;DHT22;2388;53.582;9.962;2022-10-18T04:26:52;14.40;99.90
4749;DHT22;2388;53.582;9.962;2022-10-18T04:29:18;14.40;99.90
4749;DHT22;2388;53.582;9.962;2022-10-18T04:31:43;14.40;99.90
4749;DHT22;2388;53.582;9.962;2022-10-18T04:34:09;14.40;99.90
4749;DHT22;2388;53.582;9.962;2022-10-18T04:36:35;14.40;99.90
4749;DHT22;2388;53.582;9.962;2022-10-18T04:39:00;14.40;99.90
4749;DHT22;2388;53.582;9.962;2022-10-18T04:41:26;14.40;99.90
4749;DHT22;2388;53.582;9.962;2022-10-18T04:43:51;14.40;99.90
4749;DHT22;2388;53.582;9.962;2022-10-18T04:46:17;14.40;99.90
4749;DHT22;2388;53.582;9.962;2022-10-18T04:48:42;14.30;99.90
4749;DHT22;2388;53.582;9.962;2022-10-18T04:51:08;14.30;99.90
4749;DHT22;2388;53.582;9.962;2022-10-18T04:53:33;14.30;99.90
4749;DHT22;2388;53.582;9.962;2022-10-18T04:55:59;14.30;99.90
4749;DHT22;2388;53.582;9.962;2022-10-18T04:58:24;14.30;99.90
4749;DHT22;2388;53.582;9.962;2022-10-18T05:00:50;14.30;99.90
4749;DHT22;2388;53.582;9.962;2022-10-18T05:03:16;14.20;99.90
4749;DHT22;2388;53.582;9.962;2022-10-18T05:05:41;14.30;99.90
4749;DHT22;2388;53.582;9.962;2022-10-18T05:08:07;14.20;99.90
4749;DHT22;2388;53.582;9.962;2022-10-18T05:10:33;14.20;99.90
4749;DHT22;2388;53.582;9.962;2022-10-18T05:12:58;14.20;99.90
4749;DHT22;2388;53.582;9.962;2022-10-18T05:15:24;14.30;99.90
4749;DHT22;2388;53.582;9.962;2022-10-18T05:17:49;14.30;99.90
4749;DHT22;2388;53.582;9.962;2022-10-18T05:20:15;14.30;99.90
4749;DHT22;2388;53.582;9.962;2022-10-18T05:22:40;14.20;99.90
4749;DHT22;2388;53.582;9.962;2022-10-18T05:25:06;14.20;99.90
4749;DHT22;2388;53.582;9.962;2022-10-18T05:27:32;14.30;99.90
4749;DHT22;2388;53.582;9.962;2022-10-18T05:29:58;14.20;99.90
4749;DHT22;2388;53.582;9.962;2022-10-18T05:32:23;14.20;99.90
4749;DHT22;2388;53.582;9.962;2022-10-18T05:34:49;14.20;99.90
4749;DHT22;2388;53.582;9.962;2022-10-18T05:37:15;14.20;99.90
4749;DHT22;2388;53.582;9.962;2022-10-18T05:39:40;14.20;99.90
4749;DHT22;2388;53.582;9.962;2022-10-18T05:42:05;14.10;99.90
4749;DHT22;2388;53.582;9.962;2022-10-18T05:44:31;14.20;99.90
4749;DHT22;2388;53.582;9.962;2022-10-18T05:46:57;14.20;99.90
4749;DHT22;2388;53.582;9.962;2022-10-18T05:49:22;14.20;99.90
4749;DHT22;2388;53.582;9.962;2022-10-18T05:51:48;14.20;99.90
4749;DHT22;2388;53.582;9.962;2022-10-18T05:54:13;14.10;99.90
4749;DHT22;2388;53.582;9.962;2022-10-18T05:56:39;14.20;99.90
4749;DHT22;2388;53.582;9.962;2022-10-18T05:59:05;14.20;99.90
4749;DHT22;2388;53.582;9.962;2022-10-18T06:01:40;14.20;99.90
4749;DHT22;2388;53.582;9.962;2022-10-18T06:04:06;14.20;99.90
4749;DHT22;2388;53.582;9.962;2022-10-18T06:06:32;14.10;99.90
4749;DHT22;2388;53.582;9.962;2022-10-18T06:08:58;14.10;99.90
4749;DHT22;2388;53.582;9.962;2022-10-18T06:11:24;14.10;99.90
4749;DHT22;2388;53.582;9.962;2022-10-18T06:13:50;14.10;99.90
4749;DHT22;2388;53.582;9.962;2022-10-18T06:16:18;14.00;99.90
4749;DHT22;2388;53.582;9.962;2022-10-18T06:18:52;14.00;99.90
4749;DHT22;2388;53.582;9.962;2022-10-18T06:21:19;14.10;99.90
4749;DHT22;2388;53.582;9.962;2022-10-18T06:23:52;14.10;99.90
4749;DHT22;2388;53.582;9.962;2022-10-18T06:26:19;14.10;99.90
4749;DHT22;2388;53.582;9.962;2022-10-18T06:28:45;14.10;99.90
4749;DHT22;2388;53.582;9.962;2022-10-18T06:31:11;14.10;99.90
4749;DHT22;2388;53.582;9.962;2022-10-18T06:33:37;14.10;99.90
4749;DHT22;2388;53.582;9.962;2022-10-18T06:36:07;14.10;99.90
4749;DHT22;2388;53.582;9.962;2022-10-18T06:38:34;14.10;99.90
4749;DHT22;2388;53.582;9.962;2022-10-18T06:41:00;14.10;99.90
4749;DHT22;2388;53.582;9.962;2022-10-18T06:43:26;14.10;99.90
4749;DHT22;2388;53.582;9.962;2022-10-18T06:45:52;14.10;99.90
4749;DHT22;2388;53.582;9.962;2022-10-18T06:48:18;14.20;99.90
4749;DHT22;2388;53.582;9.962;2022-10-18T06:50:58;14.10;99.90
4749;DHT22;2388;53.582;9.962;2022-10-18T06:53:25;14.10;99.90
4749;DHT22;2388;53.582;9.962;2022-10-18T06:55:51;14.10;99.90
4749;DHT22;2388;53.582;9.962;2022-10-18T06:58:17;14.10;99.90
4749;DHT22;2388;53.582;9.962;2022-10-18T07:00:43;14.20;99.90
4749;DHT22;2388;53.582;9.962;2022-10-18T07:03:10;14.10;99.90
4749;DHT22;2388;53.582;9.962;2022-10-18T07:05:35;14.10;99.90
4749;DHT22;2388;53.582;9.962;2022-10-18T07:08:01;14.10;99.90
4749;DHT22;2388;53.582;9.962;2022-10-18T07:10:26;14.10;99.90
4749;DHT22;2388;53.582;9.962;2022-10-18T07:12:52;14.10;99.90
4749;DHT22;2388;53.582;9.962;2022-10-18T07:15:17;14.10;99.90
4749;DHT22;2388;53.582;9.962;2022-10-18T07:17:44;14.10;99.90
4749;DHT22;2388;53.582;9.962;2022-10-18T07:20:13;13.90;99.90
4749;DHT22;2388;53.582;9.962;2022-10-18T07:22:38;14.10;99.90
4749;DHT22;2388;53.582;9.962;2022-10-18T07:25:05;14.10;99.90
4749;DHT22;2388;53.582;9.962;2022-10-18T07:27:34;14.10;99.90
4749;DHT22;2388;53.582;9.962;2022-10-18T07:30:00;14.10;99.90
4749;DHT22;2388;53.582;9.962;2022-10-18T07:32:25;14.10;99.90
4749;DHT22;2388;53.582;9.962;2022-10-18T07:34:51;14.10;99.90
4749;DHT22;2388;53.582;9.962;2022-10-18T07:37:16;14.10;99.90
4749;DHT22;2388;53.582;9.962;2022-10-18T07:39:42;14.10;99.90
4749;DHT22;2388;53.582;9.962;2022-10-18T07:42:07;14.10;99.90
4749;DHT22;2388;53.582;9.962;2022-10-18T07:44:32;14.00;99.90
4749;DHT22;2388;53.582;9.962;2022-10-18T07:46:58;14.10;99.90
4749;DHT22;2388;53.582;9.962;2022-10-18T07:49:23;14.00;99.90
4749;DHT22;2388;53.582;9.962;2022-10-18T07:51:49;14.00;99.90
4749;DHT22;2388;53.582;9.962;2022-10-18T07:54:14;14.00;99.90
4749;DHT22;2388;53.582;9.962;2022-10-18T07:56:41;14.00;99.90
4749;DHT22;2388;53.582;9.962;2022-10-18T07:59:08;14.00;99.90
4749;DHT22;2388;53.582;9.962;2022-10-18T08:01:34;14.00;99.90
4749;DHT22;2388;53.582;9.962;2022-10-18T08:04:01;14.00;99.90
4749;DHT22;2388;53.582;9.962;2022-10-18T08:06:26;14.00;99.90
4749;DHT22;2388;53.582;9.962;2022-10-18T08:08:52;14.00;99.90
4749;DHT22;2388;53.582;9.962;2022-10-18T08:11:20;14.00;99.90
4749;DHT22;2388;53.582;9.962;2022-10-18T08:13:46;14.00;99.90
4749;DHT22;2388;53.582;9.962;2022-10-18T08:16:13;14.00;99.90
4749;DHT22;2388;53.582;9.962;2022-10-18T08:18:39;13.90;99.90
4749;DHT22;2388;53.582;9.962;2022-10-18T08:21:07;14.00;99.90
4749;DHT22;2388;53.582;9.962;2022-10-18T08:23:33;14.00;99.90
4749;DHT22;2388;53.582;9.962;2022-10-18T08:26:08;14.00;99.90
4749;DHT22;2388;53.582;9.962;2022-10-18T08:28:34;14.00;99.90
4749;DHT22;2388;53.582;9.962;2022-10-18T08:31:05;14.00;99.90
4749;DHT22;2388;53.582;9.962;2022-10-18T08:33:31;14.00;99.90
4749;DHT22;2388;53.582;9.962;2022-10-18T08:36:00;14.00;99.90
4749;DHT22;2388;53.582;9.962;2022-10-18T08:38:28;14.00;99.90
4749;DHT22;2388;53.582;9.962;2022-10-18T08:40:54;14.00;99.90
4749;DHT22;2388;53.582;9.962;2022-10-18T08:43:31;14.00;99.90
4749;DHT22;2388;53.582;9.962;2022-10-18T08:45:58;14.00;99.90
4749;DHT22;2388;53.582;9.962;2022-10-18T08:48:34;14.00;99.90
4749;DHT22;2388;53.582;9.962;2022-10-18T08:51:04;14.10;99.90
4749;DHT22;2388;53.582;9.962;2022-10-18T08:53:44;14.00;99.90
4749;DHT22;2388;53.582;9.962;2022-10-18T08:56:13;14.10;99.90
4749;DHT22;2388;53.582;9.962;2022-10-18T08:58:41;14.20;99.90
4749;DHT22;2388;53.582;9.962;2022-10-18T09:01:31;14.40;99.90
4749;DHT22;2388;53.582;9.962;2022-10-18T09:07:12;14.40;99.90
4749;DHT22;2388;53.582;9.962;2022-10-18T09:09:43;14.20;99.90
4749;DHT22;2388;53.582;9.962;2022-10-18T09:12:47;14.10;99.90
4749;DHT22;2388;53.582;9.962;2022-10-18T09:15:28;14.00;99.90
4749;DHT22;2388;53.582;9.962;2022-10-18T09:18:10;14.00;99.90
4749;DHT22;2388;53.582;9.962;2022-10-18T09:20:57;14.00;99.90
4749;DHT22;2388;53.582;9.962;2022-10-18T09:23:43;14.10;99.90
4749;DHT22;2388;53.582;9.962;2022-10-18T09:26:17;14.00;99.90
4749;DHT22;2388;53.582;9.962;2022-10-18T09:31:18;14.20;99.90
4749;DHT22;2388;53.582;9.962;2022-10-18T09:34:01;14.10;99.90
4749;DHT22;2388;53.582;9.962;2022-10-18T09:36:32;14.20;99.90
4749;DHT22;2388;53.582;9.962;2022-10-18T09:39:15;14.10;99.90
4749;DHT22;2388;53.582;9.962;2022-10-18T09:44:32;14.20;99.90
4749;DHT22;2388;53.582;9.962;2022-10-18T09:47:15;14.30;99.90
4749;DHT22;2388;53.582;9.962;2022-10-18T09:49:45;14.40;99.90
4749;DHT22;2388;53.582;9.962;2022-10-18T09:52:16;14.40;99.90
4749;DHT22;2388;53.582;9.962;2022-10-18T09:54:47;14.50;99.90
4749;DHT22;2388;53.582;9.962;2022-10-18T09:57:28;14.50;99.90
4749;DHT22;2388;53.582;9.962;2022-10-18T09:59:57;14.60;99.90
4749;DHT22;2388;53.582;9.962;2022-10-18T10:02:23;14.70;99.90
4749;DHT22;2388;53.582;9.962;2022-10-18T10:04:50;14.70;99.90
4749;DHT22;2388;53.582;9.962;2022-10-18T10:07:24;14.70;99.90
4749;DHT22;2388;53.582;9.962;2022-10-18T10:10:04;14.80;99.90
4749;DHT22;2388;53.582;9.962;2022-10-18T10:12:36;14.90;99.90
4749;DHT22;2388;53.582;9.962;2022-10-18T10:15:23;14.90;99.90
4749;DHT22;2388;53.582;9.962;2022-10-18T10:20:49;15.00;99.90
4749;DHT22;2388;53.582;9.962;2022-10-18T10:23:17;15.00;99.90
4749;DHT22;2388;53.582;9.962;2022-10-18T10:25:49;15.10;99.90
4749;DHT22;2388;53.582;9.962;2022-10-18T10:28:19;15.20;99.90
4749;DHT22;2388;53.582;9.962;2022-10-18T10:30:46;15.30;99.90
4749;DHT22;2388;53.582;9.962;2022-10-18T10:36:00;15.50;99.90
4749;DHT22;2388;53.582;9.962;2022-10-18T10:38:28;15.60;99.90
4749;DHT22;2388;53.582;9.962;2022-10-18T10:40:54;15.60;99.90
4749;DHT22;2388;53.582;9.962;2022-10-18T10:45:57;15.60;99.90
4749;DHT22;2388;53.582;9.962;2022-10-18T10:48:25;15.60;99.90
4749;DHT22;2388;53.582;9.962;2022-10-18T10:51:06;15.50;99.90
4749;DHT22;2388;53.582;9.962;2022-10-18T10:53:37;15.60;99.90
4749;DHT22;2388;53.582;9.962;2022-10-18T10:56:03;15.80;99.90
4749;DHT22;2388;53.582;9.962;2022-10-18T10:58:34;15.80;99.90
4749;DHT22;2388;53.582;9.962;2022-10-18T11:01:30;16.10;99.90
4749;DHT22;2388;53.582;9.962;2022-10-18T11:03:59;17.30;99.90
4749;DHT22;2388;53.582;9.962;2022-10-18T11:09:03;16.50;99.90
4749;DHT22;2388;53.582;9.962;2022-10-18T11:11:40;16.30;99.90
4749;DHT22;2388;53.582;9.962;2022-10-18T11:14:26;16.20;99.90
4749;DHT22;2388;53.582;9.962;2022-10-18T11:19:37;16.00;99.90
4749;DHT22;2388;53.582;9.962;2022-10-18T11:22:05;16.00;99.90
4749;DHT22;2388;53.582;9.962;2022-10-18T11:24:34;16.10;99.90
4749;DHT22;2388;53.582;9.962;2022-10-18T11:27:13;16.10;99.90
4749;DHT22;2388;53.582;9.962;2022-10-18T11:29:57;16.10;99.90
4749;DHT22;2388;53.582;9.962;2022-10-18T11:32:41;16.00;99.90
4749;DHT22;2388;53.582;9.962;2022-10-18T11:35:34;16.00;99.90
4749;DHT22;2388;53.582;9.962;2022-10-18T11:43:39;16.00;99.90
4749;DHT22;2388;53.582;9.962;2022-10-18T11:46:12;16.10;99.90
4749;DHT22;2388;53.582;9.962;2022-10-18T11:51:22;16.40;99.90
4749;DHT22;2388;53.582;9.962;2022-10-18T11:59:36;17.10;99.90
4749;DHT22;2388;53.582;9.962;2022-10-18T12:02:41;17.30;99.90
4749;DHT22;2388;53.582;9.962;2022-10-18T12:05:10;17.20;99.90
4749;DHT22;2388;53.582;9.962;2022-10-18T12:07:49;17.00;99.90
4749;DHT22;2388;53.582;9.962;2022-10-18T12:10:17;16.90;99.90
4749;DHT22;2388;53.582;9.962;2022-10-18T12:12:52;16.90;99.90
4749;DHT22;2388;53.582;9.962;2022-10-18T12:15:22;16.80;99.90
4749;DHT22;2388;53.582;9.962;2022-10-18T12:18:02;16.80;99.90
4749;DHT22;2388;53.582;9.962;2022-10-18T12:23:03;16.90;99.90
4749;DHT22;2388;53.582;9.962;2022-10-18T12:25:33;16.90;99.90
4749;DHT22;2388;53.582;9.962;2022-10-18T12:30:58;17.00;99.90
4749;DHT22;2388;53.582;9.962;2022-10-18T12:33:29;17.30;99.90
4749;DHT22;2388;53.582;9.962;2022-10-18T12:36:21;17.20;99.90
4749;DHT22;2388;53.582;9.962;2022-10-18T12:39:05;17.30;99.90
4749;DHT22;2388;53.582;9.962;2022-10-18T12:41:34;17.30;99.90
4749;DHT22;2388;53.582;9.962;2022-10-18T12:44:53;17.30;99.90
4749;DHT22;2388;53.582;9.962;2022-10-18T12:46:53;17.40;99.90
4749;DHT22;2388;53.582;9.962;2022-10-18T12:49:37;17.50;99.90
4749;DHT22;2388;53.582;9.962;2022-10-18T12:52:05;17.50;99.90
4749;DHT22;2388;53.582;9.962;2022-10-18T12:54:34;17.50;99.90
4749;DHT22;2388;53.582;9.962;2022-10-18T12:57:01;17.30;99.90
4749;DHT22;2388;53.582;9.962;2022-10-18T13:09:32;16.70;99.90
4749;DHT22;2388;53.582;9.962;2022-10-18T13:15:02;16.50;99.90
4749;DHT22;2388;53.582;9.962;2022-10-18T13:22:57;16.30;99.90
4749;DHT22;2388;53.582;9.962;2022-10-18T13:31:33;16.20;99.90
4749;DHT22;2388;53.582;9.962;2022-10-18T13:37:04;16.00;99.90
4749;DHT22;2388;53.582;9.962;2022-10-18T13:39:31;15.90;99.90
4749;DHT22;2388;53.582;9.962;2022-10-18T13:44:26;15.90;99.90
4749;DHT22;2388;53.582;9.962;2022-10-18T13:49:47;15.90;99.90
4749;DHT22;2388;53.582;9.962;2022-10-18T13:54:53;15.90;99.90
4749;DHT22;2388;53.582;9.962;2022-10-18T14:03:13;15.80;99.90
4749;DHT22;2388;53.582;9.962;2022-10-18T14:08:24;15.80;99.90
4749;DHT22;2388;53.582;9.962;2022-10-18T14:11:03;15.70;99.90
4749;DHT22;2388;53.582;9.962;2022-10-18T14:13:46;15.70;99.90
4749;DHT22;2388;53.582;9.962;2022-10-18T14:16:33;15.70;99.90
4749;DHT22;2388;53.582;9.962;2022-10-18T14:19:28;15.70;99.90
4749;DHT22;2388;53.582;9.962;2022-10-18T14:24:29;15.70;99.90
4749;DHT22;2388;53.582;9.962;2022-10-18T14:29:45;15.80;99.90
4749;DHT22;2388;53.582;9.962;2022-10-18T14:32:28;15.80;99.90
4749;DHT22;2388;53.582;9.962;2022-10-18T14:34:54;15.80;99.90
4749;DHT22;2388;53.582;9.962;2022-10-18T14:37:30;15.80;99.90
4749;DHT22;2388;53.582;9.962;2022-10-18T14:39:57;15.80;99.90
4749;DHT22;2388;53.582;9.962;2022-10-18T14:42:24;15.80;99.90
4749;DHT22;2388;53.582;9.962;2022-10-18T14:44:51;15.80;99.90
4749;DHT22;2388;53.582;9.962;2022-10-18T14:47:21;15.80;99.90
4749;DHT22;2388;53.582;9.962;2022-10-18T14:49:47;15.70;99.90
4749;DHT22;2388;53.582;9.962;2022-10-18T14:52:25;15.70;99.90
4749;DHT22;2388;53.582;9.962;2022-10-18T14:54:53;15.70;99.90
4749;DHT22;2388;53.582;9.962;2022-10-18T14:57:24;15.70;99.90
4749;DHT22;2388;53.582;9.962;2022-10-18T14:59:54;15.70;99.90
4749;DHT22;2388;53.582;9.962;2022-10-18T15:02:24;15.70;99.90
4749;DHT22;2388;53.582;9.962;2022-10-18T15:04:59;15.60;99.90
4749;DHT22;2388;53.582;9.962;2022-10-18T15:07:30;15.60;99.90
4749;DHT22;2388;53.582;9.962;2022-10-18T15:09:58;15.60;99.90
4749;DHT22;2388;53.582;9.962;2022-10-18T15:12:25;15.70;99.90
4749;DHT22;2388;53.582;9.962;2022-10-18T15:14:52;15.60;99.90
4749;DHT22;2388;53.582;9.962;2022-10-18T15:17:24;15.60;99.90
4749;DHT22;2388;53.582;9.962;2022-10-18T15:20:03;15.60;99.90
4749;DHT22;2388;53.582;9.962;2022-10-18T15:22:42;15.60;99.90
4749;DHT22;2388;53.582;9.962;2022-10-18T15:25:26;15.60;99.90
4749;DHT22;2388;53.582;9.962;2022-10-18T15:27:56;15.50;99.90
4749;DHT22;2388;53.582;9.962;2022-10-18T15:30:37;15.50;99.90
4749;DHT22;2388;53.582;9.962;2022-10-18T15:33:05;15.50;99.90
4749;DHT22;2388;53.582;9.962;2022-10-18T15:35:36;15.50;99.90
4749;DHT22;2388;53.582;9.962;2022-10-18T15:38:21;15.40;99.90
4749;DHT22;2388;53.582;9.962;2022-10-18T15:40:48;15.40;99.90
4749;DHT22;2388;53.582;9.962;2022-10-18T15:45:57;15.30;99.90
4749;DHT22;2388;53.582;9.962;2022-10-18T15:48:26;15.30;99.90
4749;DHT22;2388;53.582;9.962;2022-10-18T15:50:59;15.20;99.90
4749;DHT22;2388;53.582;9.962;2022-10-18T15:53:51;15.30;99.90
4749;DHT22;2388;53.582;9.962;2022-10-18T15:56:32;15.20;99.90
4749;DHT22;2388;53.582;9.962;2022-10-18T15:59:01;15.20;99.90
4749;DHT22;2388;53.582;9.962;2022-10-18T16:01:36;15.20;99.90
4749;DHT22;2388;53.582;9.962;2022-10-18T16:04:22;15.20;99.90
4749;DHT22;2388;53.582;9.962;2022-10-18T16:06:48;15.20;99.90
4749;DHT22;2388;53.582;9.962;2022-10-18T16:09:19;15.20;99.90
4749;DHT22;2388;53.582;9.962;2022-10-18T16:11:45;15.20;99.90
4749;DHT22;2388;53.582;9.962;2022-10-18T16:14:11;15.20;99.90
4749;DHT22;2388;53.582;9.962;2022-10-18T16:16:38;15.20;99.90
4749;DHT22;2388;53.582;9.962;2022-10-18T16:19:04;15.10;99.90
4749;DHT22;2388;53.582;9.962;2022-10-18T16:21:32;15.10;99.90
4749;DHT22;2388;53.582;9.962;2022-10-18T16:23:58;15.10;99.90
4749;DHT22;2388;53.582;9.962;2022-10-18T16:26:25;15.10;99.90
4749;DHT22;2388;53.582;9.962;2022-10-18T16:28:51;15.10;99.90
4749;DHT22;2388;53.582;9.962;2022-10-18T16:31:22;15.10;99.90
4749;DHT22;2388;53.582;9.962;2022-10-18T16:33:48;15.10;99.90
4749;DHT22;2388;53.582;9.962;2022-10-18T16:36:20;15.10;99.90
4749;DHT22;2388;53.582;9.962;2022-10-18T16:38:47;15.00;99.90
4749;DHT22;2388;53.582;9.962;2022-10-18T16:41:13;15.00;99.90
4749;DHT22;2388;53.582;9.962;2022-10-18T16:43:41;15.00;99.90
4749;DHT22;2388;53.582;9.962;2022-10-18T16:46:11;15.00;99.90
4749;DHT22;2388;53.582;9.962;2022-10-18T16:48:38;15.00;99.90
4749;DHT22;2388;53.582;9.962;2022-10-18T16:51:03;15.00;99.90
4749;DHT22;2388;53.582;9.962;2022-10-18T16:53:29;14.90;99.90
4749;DHT22;2388;53.582;9.962;2022-10-18T16:55:59;15.00;99.90
4749;DHT22;2388;53.582;9.962;2022-10-18T16:58:26;14.90;99.90
4749;DHT22;2388;53.582;9.962;2022-10-18T17:00:52;15.00;99.90
4749;DHT22;2388;53.582;9.962;2022-10-18T17:03:18;14.90;99.90
4749;DHT22;2388;53.582;9.962;2022-10-18T17:05:44;14.90;99.90
4749;DHT22;2388;53.582;9.962;2022-10-18T17:08:27;14.90;99.90
4749;DHT22;2388;53.582;9.962;2022-10-18T17:10:55;14.90;99.90
4749;DHT22;2388;53.582;9.962;2022-10-18T17:13:22;14.90;99.90
4749;DHT22;2388;53.582;9.962;2022-10-18T17:15:49;14.90;99.90
4749;DHT22;2388;53.582;9.962;2022-10-18T17:18:18;14.90;99.90
4749;DHT22;2388;53.582;9.962;2022-10-18T17:20:44;14.90;99.90
4749;DHT22;2388;53.582;9.962;2022-10-18T17:23:10;14.90;99.90
4749;DHT22;2388;53.582;9.962;2022-10-18T17:25:36;14.90;99.90
4749;DHT22;2388;53.582;9.962;2022-10-18T17:28:03;14.90;99.90
4749;DHT22;2388;53.582;9.962;2022-10-18T17:30:30;14.90;99.90
4749;DHT22;2388;53.582;9.962;2022-10-18T17:32:55;14.90;99.90
4749;DHT22;2388;53.582;9.962;2022-10-18T17:35:21;14.80;99.90
4749;DHT22;2388;53.582;9.962;2022-10-18T17:37:47;14.90;99.90
4749;DHT22;2388;53.582;9.962;2022-10-18T17:40:14;14.90;99.90
4749;DHT22;2388;53.582;9.962;2022-10-18T17:42:39;14.90;99.90
4749;DHT22;2388;53.582;9.962;2022-10-18T17:45:05;14.80;99.90
4749;DHT22;2388;53.582;9.962;2022-10-18T17:47:31;14.90;99.90
4749;DHT22;2388;53.582;9.962;2022-10-18T17:49:56;14.80;99.90
4749;DHT22;2388;53.582;9.962;2022-10-18T17:52:22;14.80;99.90
4749;DHT22;2388;53.582;9.962;2022-10-18T17:54:47;14.80;99.90
4749;DHT22;2388;53.582;9.962;2022-10-18T17:57:13;14.80;99.90
4749;DHT22;2388;53.582;9.962;2022-10-18T17:59:38;14.80;99.90
4749;DHT22;2388;53.582;9.962;2022-10-18T18:02:04;14.80;99.90
4749;DHT22;2388;53.582;9.962;2022-10-18T18:04:29;14.80;99.90
4749;DHT22;2388;53.582;9.962;2022-10-18T18:06:55;14.80;99.90
4749;DHT22;2388;53.582;9.962;2022-10-18T18:09:21;14.80;99.90
4749;DHT22;2388;53.582;9.962;2022-10-18T18:11:47;14.80;99.90
4749;DHT22;2388;53.582;9.962;2022-10-18T18:14:14;14.80;99.90